• Join FlightAware (Why Join?)
  • Login
  • US Flag 
04:44AM EST


 

Airport Tracker/Info


-or-


 

Live Flight TrackerFlight Track Log ✈ GTX653 ✈ 24-Feb-2014 ✈ KADS - KAUS

Flight Track Log - Related Links

Times and Time Zones

All times are in EST time to prevent confusion due to time zone crossing. See the GTX653 flight status page for this flight to view local times or setup timezone preferences in your user account.

Time Position Orientation Groundspeed Altitude Reporting Facility
EST Latitude Longitude Course Direction KTS MPH feet Rate Location/Type
11:55PM 32.9667 -96.8333 140° Southeast 119 137 1,000  Level Dallas / Fort Worth TRACON
11:56PM 32.9333 -96.8000 140° Southeast 102 117 2,000 780 Climbing Dallas / Fort Worth TRACON
11:57PM 32.9000 -96.8167 203° Southwest 111 128 2,800 660 Climbing Dallas / Fort Worth TRACON
11:58PM 32.8667 -96.8333 203° Southwest 115 132 3,400 540 Climbing Dallas / Fort Worth TRACON
11:59PM 32.8500 -96.8500 220° Southwest 120 138 3,900 240 Climbing Dallas / Fort Worth TRACON
12:00AM 32.8167 -96.8667 203° Southwest 149 171 3,900  Level Dallas / Fort Worth TRACON
12:02AM 32.7450 -96.8900 195° South 152 175 3,900 120 Level Fort Worth Center
12:03AM 32.7025 -96.8958 187° South 153 176 4,300 480 Climbing Fort Worth Center
12:04AM 32.6644 -96.8983 183° South 143 165 4,900 540 Climbing Fort Worth Center
12:05AM 32.6247 -96.9017 184° South 137 158 5,500 480 Climbing Fort Worth Center
12:06AM 32.5856 -96.9042 183° South 140 161 5,900 180 Climbing Fort Worth Center
12:07AM 32.5397 -96.9081 184° South 160 184 5,900  Level Fort Worth Center
12:08AM 32.4906 -96.9122 184° South 168 193 5,900  Level Fort Worth Center
12:09AM 32.4428 -96.9167 184° South 170 196 5,900  Level Fort Worth Center
12:10AM 32.3956 -96.9228 186° South 172 198 5,900  Level Fort Worth Center
12:11AM 32.3483 -96.9289 186° South 171 197 5,900  Level Fort Worth Center
12:12AM 32.3064 -96.9483 201° Southwest 165 190 5,900  Level Fort Worth Center
12:13AM 32.2622 -96.9631 196° South 165 190 5,900  Level Fort Worth Center
12:14AM 32.2172 -96.9786 196° South 165 190 5,900  Level Fort Worth Center
12:15AM 32.1725 -96.9919 194° South 165 190 6,000  Climbing Fort Worth Center
12:16AM 32.1281 -97.0067 196° South 165 190 5,900  Descending Fort Worth Center
12:17AM 32.0825 -97.0208 195° South 166 191 6,000  Climbing Fort Worth Center
12:18AM 32.0375 -97.0339 194° South 166 191 6,000 -60 Level Fort Worth Center
12:19AM 31.9917 -97.0436 190° South 166 191 5,900 -60 Descending Fort Worth Center
12:20AM 31.9453 -97.0611 198° South 166 191 5,900  Level Fort Worth Center
12:21AM 31.9008 -97.0733 193° South 166 191 5,900  Level Fort Worth Center
12:22AM 31.8558 -97.0864 194° South 162 186 5,900  Level Houston Center
12:23AM 31.8128 -97.1025 198° South 161 185 6,000  Climbing Houston Center
12:24AM 31.7686 -97.1169 196° South 162 186 6,000 -60 Level Houston Center
12:25AM 31.7253 -97.1297 194° South 162 186 5,900  Descending Fort Worth Center
12:26AM 31.6808 -97.1447 196° South 162 186 6,000 60 Climbing Fort Worth Center
12:26AM 31.6603 -97.1511 195° South 164 189 6,000  Level Fort Worth Center
12:27AM 31.6461 -97.1561 197° South 165 190 6,000 -180 Level Fort Worth Center
12:27AM 31.6364 -97.1586 192° South 162 186 5,900  Descending Fort Worth Center
12:28AM 31.6058 -97.1703 198° South 164 189 6,000  Climbing Fort Worth Center
12:28AM 31.5919 -97.1744 194° South 163 188 5,900  Descending Fort Worth Center
12:29AM 31.5592 -97.1858 196° South 162 186 6,000  Climbing Fort Worth Center
12:29AM 31.5481 -97.1875 187° South 163 188 5,900 -120 Descending Fort Worth Center
12:30AM 31.5164 -97.1981 196° South 162 186 5,900 60 Level Fort Worth Center
12:30AM 31.5039 -97.2017 194° South 162 186 6,000 60 Climbing Fort Worth Center
12:31AM 31.4742 -97.2150 201° Southwest 158 182 6,000  Level Fort Worth Center
12:31AM 31.4628 -97.2183 194° South 160 184 6,000  Level Fort Worth Center
12:32AM 31.4339 -97.2294 198° South 158 182 6,000 -120 Level Fort Worth Center
12:32AM 31.4189 -97.2328 191° South 160 184 5,900  Descending Fort Worth Center
12:33AM 31.3869 -97.2422 194° South 161 185 6,000 60 Climbing Fort Worth Center
12:33AM 31.3831 -97.2442 203° Southwest 160 184 6,000  Level Fort Worth Center
12:34AM 31.3400 -97.2597 197° South 158 182 6,000  Level Houston Center
12:35AM 31.2975 -97.2761 198° South 158 182 6,000  Level Houston Center
12:36AM 31.2544 -97.2917 197° South 159 183 6,000  Level Houston Center
12:37AM 31.2111 -97.3042 194° South 160 184 6,000  Level Houston Center
12:38AM 31.1681 -97.3178 195° South 159 183 6,000  Level Houston Center
12:39AM 31.1258 -97.3319 196° South 158 182 6,000  Level Houston Center
12:40AM 31.0844 -97.3497 200° South 158 182 6,000  Level Houston Center
12:41AM 31.0425 -97.3661 199° South 158 182 6,000  Level Houston Center
12:42AM 30.9997 -97.3803 196° South 158 182 6,000  Level Houston Center
12:43AM 30.9567 -97.3944 196° South 160 184 6,000  Level Houston Center
12:44AM 30.9139 -97.4075 195° South 160 184 6,000  Level Houston Center
12:45AM 30.8703 -97.4222 196° South 161 185 6,000  Level Houston Center
12:46AM 30.8256 -97.4358 195° South 164 189 6,000  Level Houston Center
12:47AM 30.7811 -97.4514 197° South 165 190 6,000  Level Houston Center
12:48AM 30.7364 -97.4664 196° South 166 191 6,000  Level Houston Center
12:49AM 30.6900 -97.4808 195° South 169 194 6,000  Level Houston Center
12:50AM 30.6444 -97.4981 198° South 171 197 6,000 -60 Level Houston Center
12:51AM 30.6039 -97.5256 210° Southwest 167 192 5,900 -420 Descending Houston Center
12:52AM 30.5622 -97.5536 210° Southwest 170 196 5,200 -720 Descending Houston Center
12:53AM 30.5211 -97.5825 211° Southwest 171 197 4,500 -660 Descending Houston Center
12:54AM 30.4808 -97.6111 211° Southwest 170 196 3,900 -600 Descending Houston Center
12:55AM 30.4397 -97.6350 207° Southwest 166 191 3,300 -600 Descending Houston Center
12:56AM 30.3975 -97.6575 205° Southwest 165 190 2,700 -420 Descending Houston Center
12:57AM 30.3575 -97.6622 186° South 156 180 2,500 -120 Descending Houston Center
12:58AM 30.3208 -97.6608 178° South 139 160 2,500 -180 Level Houston Center
12:59AM 30.2886 -97.6597 178° South 127 146 2,200 -480 Descending Houston Center
01:00AM 30.2636 -97.6594 179° South 118 136 1,600 -600 Descending Houston Center